CMR weather

Colmar-Houssen Airport
Colmar/Houssen, Alsace, France

Public forecast

Using degrees Celsius for public forecast. Weather courtesy of forecast.io.

METAR (pilot weather report)

Retrieved 2019/07/17 14:30 UTC (7 minutes ago):

LFGA 171430Z AUTO 10005KT 030V180 CAVOK 28/13 Q1012

TAF (pilot weather forecast)

Closest forecast is Strasbourg Airport, 27.9 nm (51.6 km) NNE. Retrieved 2019/07/17 12:00 UTC (3 hours ago):

TAF LFST 171100Z 1712/1812 02005KT CAVOK BECMG 1802/1804 VRB03KT BECMG 1809/1812 16006KT